Terminal Aerodrome Forecast
Issued by NWS

Home | Current Version | Previous Version | Text Only | Print | Product List | Glossary Off
Versions: 1 2 3 4 5 6 7 8 9 10 11 12 13 14 15 16 17

782
FTUS43 KBIS 202135 AAA
TAFMOT
TAF AMD
KMOT 202135Z 2022/2118 15012KT 6SM TSRA BKN040CB
     FM202300 08012KT P6SM VCTS SCT045CB SCT200
     FM210600 09008KT P6SM SCT080 BKN200=

USA.gov is the U.S. government's official web portal to all federal, state and local government web resources and services.